sensor_id;sensor_type;location;lat;lon;timestamp;temperature;humidity
22544;DHT22;11438;52.044;8.716;2023-02-28T00:00:36;3.90;91.80
22544;DHT22;11438;52.044;8.716;2023-02-28T00:03:02;3.90;91.90
22544;DHT22;11438;52.044;8.716;2023-02-28T00:05:28;3.90;91.90
22544;DHT22;11438;52.044;8.716;2023-02-28T00:07:55;3.90;91.90
22544;DHT22;11438;52.044;8.716;2023-02-28T00:10:24;3.90;92.00
22544;DHT22;11438;52.044;8.716;2023-02-28T00:12:51;3.80;92.00
22544;DHT22;11438;52.044;8.716;2023-02-28T00:15:17;3.80;92.00
22544;DHT22;11438;52.044;8.716;2023-02-28T00:17:43;3.80;92.00
22544;DHT22;11438;52.044;8.716;2023-02-28T00:20:10;3.90;92.10
22544;DHT22;11438;52.044;8.716;2023-02-28T00:22:42;3.90;92.10
22544;DHT22;11438;52.044;8.716;2023-02-28T00:25:09;3.90;92.20
22544;DHT22;11438;52.044;8.716;2023-02-28T00:27:36;3.90;92.10
22544;DHT22;11438;52.044;8.716;2023-02-28T00:30:03;3.90;92.10
22544;DHT22;11438;52.044;8.716;2023-02-28T00:32:29;3.90;92.10
22544;DHT22;11438;52.044;8.716;2023-02-28T00:34:55;3.90;92.20
22544;DHT22;11438;52.044;8.716;2023-02-28T00:37:21;3.90;92.20
22544;DHT22;11438;52.044;8.716;2023-02-28T00:39:46;3.90;92.20
22544;DHT22;11438;52.044;8.716;2023-02-28T00:42:12;3.90;92.30
22544;DHT22;11438;52.044;8.716;2023-02-28T00:44:37;3.90;92.30
22544;DHT22;11438;52.044;8.716;2023-02-28T00:47:03;3.90;92.30
22544;DHT22;11438;52.044;8.716;2023-02-28T00:49:28;3.90;92.30
22544;DHT22;11438;52.044;8.716;2023-02-28T00:51:54;3.90;92.30
22544;DHT22;11438;52.044;8.716;2023-02-28T00:54:21;3.90;92.30
22544;DHT22;11438;52.044;8.716;2023-02-28T00:56:47;3.90;92.30
22544;DHT22;11438;52.044;8.716;2023-02-28T00:59:13;3.90;92.30
22544;DHT22;11438;52.044;8.716;2023-02-28T01:01:39;3.90;92.30
22544;DHT22;11438;52.044;8.716;2023-02-28T01:04:05;3.90;92.30
22544;DHT22;11438;52.044;8.716;2023-02-28T01:06:31;3.80;92.20
22544;DHT22;11438;52.044;8.716;2023-02-28T01:08:57;3.80;92.20
22544;DHT22;11438;52.044;8.716;2023-02-28T01:11:23;3.80;92.20
22544;DHT22;11438;52.044;8.716;2023-02-28T01:13:48;3.80;92.20
22544;DHT22;11438;52.044;8.716;2023-02-28T01:16:14;3.70;92.20
22544;DHT22;11438;52.044;8.716;2023-02-28T01:18:39;3.70;92.20
22544;DHT22;11438;52.044;8.716;2023-02-28T01:21:11;3.70;92.30
22544;DHT22;11438;52.044;8.716;2023-02-28T01:23:38;3.60;92.30
22544;DHT22;11438;52.044;8.716;2023-02-28T01:26:08;3.60;92.30
22544;DHT22;11438;52.044;8.716;2023-02-28T01:28:34;3.60;92.30
22544;DHT22;11438;52.044;8.716;2023-02-28T01:30:59;3.50;92.20
22544;DHT22;11438;52.044;8.716;2023-02-28T01:33:25;3.50;92.20
22544;DHT22;11438;52.044;8.716;2023-02-28T01:35:58;3.50;92.20
22544;DHT22;11438;52.044;8.716;2023-02-28T01:38:24;3.50;92.30
22544;DHT22;11438;52.044;8.716;2023-02-28T01:40:50;3.40;92.30
22544;DHT22;11438;52.044;8.716;2023-02-28T01:43:30;3.40;92.30
22544;DHT22;11438;52.044;8.716;2023-02-28T01:45:57;3.40;92.30
22544;DHT22;11438;52.044;8.716;2023-02-28T01:48:27;3.30;92.30
22544;DHT22;11438;52.044;8.716;2023-02-28T01:50:56;3.30;92.30
22544;DHT22;11438;52.044;8.716;2023-02-28T01:53:38;3.30;92.30
22544;DHT22;11438;52.044;8.716;2023-02-28T01:56:06;3.20;92.30
22544;DHT22;11438;52.044;8.716;2023-02-28T01:58:34;3.20;92.40
22544;DHT22;11438;52.044;8.716;2023-02-28T02:01:01;3.20;92.50
22544;DHT22;11438;52.044;8.716;2023-02-28T02:03:29;3.10;92.60
22544;DHT22;11438;52.044;8.716;2023-02-28T02:05:55;3.10;92.60
22544;DHT22;11438;52.044;8.716;2023-02-28T02:08:23;3.10;92.60
22544;DHT22;11438;52.044;8.716;2023-02-28T02:10:52;3.10;92.60
22544;DHT22;11438;52.044;8.716;2023-02-28T02:24:19;3.00;92.60
22544;DHT22;11438;52.044;8.716;2023-02-28T02:27:04;3.00;92.70
22544;DHT22;11438;52.044;8.716;2023-02-28T02:35:05;3.00;92.70
22544;DHT22;11438;52.044;8.716;2023-02-28T02:38:08;3.00;92.70
22544;DHT22;11438;52.044;8.716;2023-02-28T02:40:43;2.90;92.70
22544;DHT22;11438;52.044;8.716;2023-02-28T02:43:22;2.90;92.70
22544;DHT22;11438;52.044;8.716;2023-02-28T02:46:01;2.90;92.70
22544;DHT22;11438;52.044;8.716;2023-02-28T02:48:31;2.90;92.70
22544;DHT22;11438;52.044;8.716;2023-02-28T02:51:01;2.90;92.70
22544;DHT22;11438;52.044;8.716;2023-02-28T02:53:33;2.90;92.70
22544;DHT22;11438;52.044;8.716;2023-02-28T02:56:03;2.80;92.70
22544;DHT22;11438;52.044;8.716;2023-02-28T02:58:33;2.80;92.70
22544;DHT22;11438;52.044;8.716;2023-02-28T03:01:02;2.80;92.70
22544;DHT22;11438;52.044;8.716;2023-02-28T03:03:31;2.80;92.60
22544;DHT22;11438;52.044;8.716;2023-02-28T03:05:59;2.80;92.60
22544;DHT22;11438;52.044;8.716;2023-02-28T03:08:26;2.70;93.00
22544;DHT22;11438;52.044;8.716;2023-02-28T03:10:56;2.70;92.70
22544;DHT22;11438;52.044;8.716;2023-02-28T03:24:32;2.60;92.60
22544;DHT22;11438;52.044;8.716;2023-02-28T03:27:07;2.50;92.60
22544;DHT22;11438;52.044;8.716;2023-02-28T03:29:39;2.50;92.60
22544;DHT22;11438;52.044;8.716;2023-02-28T03:32:20;2.50;92.70
22544;DHT22;11438;52.044;8.716;2023-02-28T03:37:34;2.40;92.70
22544;DHT22;11438;52.044;8.716;2023-02-28T03:40:10;2.40;92.70
22544;DHT22;11438;52.044;8.716;2023-02-28T03:42:40;2.40;92.70
22544;DHT22;11438;52.044;8.716;2023-02-28T03:45:19;2.40;92.70
22544;DHT22;11438;52.044;8.716;2023-02-28T03:48:01;2.30;92.70
22544;DHT22;11438;52.044;8.716;2023-02-28T03:50:34;2.30;92.70
22544;DHT22;11438;52.044;8.716;2023-02-28T03:53:04;2.30;92.80
22544;DHT22;11438;52.044;8.716;2023-02-28T03:55:39;2.30;92.80
22544;DHT22;11438;52.044;8.716;2023-02-28T03:58:19;2.20;92.70
22544;DHT22;11438;52.044;8.716;2023-02-28T04:00:50;2.20;92.80
22544;DHT22;11438;52.044;8.716;2023-02-28T04:03:18;2.20;92.80
22544;DHT22;11438;52.044;8.716;2023-02-28T04:05:54;2.20;92.70
22544;DHT22;11438;52.044;8.716;2023-02-28T04:08:21;2.20;92.70
22544;DHT22;11438;52.044;8.716;2023-02-28T04:10:53;2.10;92.60
22544;DHT22;11438;52.044;8.716;2023-02-28T04:13:20;2.10;92.70
22544;DHT22;11438;52.044;8.716;2023-02-28T04:15:46;2.10;92.60
22544;DHT22;11438;52.044;8.716;2023-02-28T04:18:11;2.00;92.60
22544;DHT22;11438;52.044;8.716;2023-02-28T04:20:37;2.00;92.70
22544;DHT22;11438;52.044;8.716;2023-02-28T04:23:02;2.00;92.70
22544;DHT22;11438;52.044;8.716;2023-02-28T04:25:28;2.00;92.70
22544;DHT22;11438;52.044;8.716;2023-02-28T04:27:53;2.00;92.70
22544;DHT22;11438;52.044;8.716;2023-02-28T04:30:19;1.90;92.80
22544;DHT22;11438;52.044;8.716;2023-02-28T04:32:44;1.90;92.80
22544;DHT22;11438;52.044;8.716;2023-02-28T04:35:10;1.90;92.80
22544;DHT22;11438;52.044;8.716;2023-02-28T04:37:35;1.90;92.80
22544;DHT22;11438;52.044;8.716;2023-02-28T04:40:02;1.80;92.80
22544;DHT22;11438;52.044;8.716;2023-02-28T04:42:28;1.90;92.90
22544;DHT22;11438;52.044;8.716;2023-02-28T04:45:01;1.90;92.90
22544;DHT22;11438;52.044;8.716;2023-02-28T04:47:26;1.80;92.90
22544;DHT22;11438;52.044;8.716;2023-02-28T04:49:52;1.80;92.90
22544;DHT22;11438;52.044;8.716;2023-02-28T04:52:17;1.80;92.80
22544;DHT22;11438;52.044;8.716;2023-02-28T04:54:43;1.80;92.80
22544;DHT22;11438;52.044;8.716;2023-02-28T04:57:08;1.80;92.80
22544;DHT22;11438;52.044;8.716;2023-02-28T04:59:34;1.80;92.80
22544;DHT22;11438;52.044;8.716;2023-02-28T05:01:59;1.70;92.80
22544;DHT22;11438;52.044;8.716;2023-02-28T05:04:25;1.70;92.70
22544;DHT22;11438;52.044;8.716;2023-02-28T05:06:50;1.70;92.70
22544;DHT22;11438;52.044;8.716;2023-02-28T05:09:16;1.70;92.80
22544;DHT22;11438;52.044;8.716;2023-02-28T05:11:41;1.60;92.80
22544;DHT22;11438;52.044;8.716;2023-02-28T05:14:11;1.60;92.90
22544;DHT22;11438;52.044;8.716;2023-02-28T05:16:37;1.60;92.90
22544;DHT22;11438;52.044;8.716;2023-02-28T05:19:02;1.60;92.90
22544;DHT22;11438;52.044;8.716;2023-02-28T05:21:33;1.50;92.90
22544;DHT22;11438;52.044;8.716;2023-02-28T05:24:04;1.50;93.00
22544;DHT22;11438;52.044;8.716;2023-02-28T05:26:30;1.50;93.00
22544;DHT22;11438;52.044;8.716;2023-02-28T05:28:56;1.50;93.10
22544;DHT22;11438;52.044;8.716;2023-02-28T05:31:22;1.50;93.10
22544;DHT22;11438;52.044;8.716;2023-02-28T05:33:48;1.40;93.10
22544;DHT22;11438;52.044;8.716;2023-02-28T05:36:13;1.40;93.10
22544;DHT22;11438;52.044;8.716;2023-02-28T05:38:39;1.40;93.10
22544;DHT22;11438;52.044;8.716;2023-02-28T05:41:09;1.40;93.10
22544;DHT22;11438;52.044;8.716;2023-02-28T05:43:35;1.40;93.10
22544;DHT22;11438;52.044;8.716;2023-02-28T05:46:03;1.40;93.10
22544;DHT22;11438;52.044;8.716;2023-02-28T05:48:29;1.40;93.10
22544;DHT22;11438;52.044;8.716;2023-02-28T05:50:57;1.40;93.10
22544;DHT22;11438;52.044;8.716;2023-02-28T05:53:23;1.30;93.10
22544;DHT22;11438;52.044;8.716;2023-02-28T05:55:48;1.30;93.00
22544;DHT22;11438;52.044;8.716;2023-02-28T05:58:14;1.30;93.00
22544;DHT22;11438;52.044;8.716;2023-02-28T06:00:39;1.30;93.10
22544;DHT22;11438;52.044;8.716;2023-02-28T06:03:05;1.30;93.10
22544;DHT22;11438;52.044;8.716;2023-02-28T06:05:30;1.30;93.10
22544;DHT22;11438;52.044;8.716;2023-02-28T06:07:56;1.30;93.10
22544;DHT22;11438;52.044;8.716;2023-02-28T06:10:21;1.20;93.00
22544;DHT22;11438;52.044;8.716;2023-02-28T06:12:46;1.20;93.00
22544;DHT22;11438;52.044;8.716;2023-02-28T06:15:16;1.20;92.90
22544;DHT22;11438;52.044;8.716;2023-02-28T06:17:43;1.20;92.90
22544;DHT22;11438;52.044;8.716;2023-02-28T06:20:09;1.20;92.90
22544;DHT22;11438;52.044;8.716;2023-02-28T06:22:36;1.20;92.90
22544;DHT22;11438;52.044;8.716;2023-02-28T06:25:03;1.20;92.90
22544;DHT22;11438;52.044;8.716;2023-02-28T06:27:28;1.20;93.00
22544;DHT22;11438;52.044;8.716;2023-02-28T06:29:54;1.10;92.90
22544;DHT22;11438;52.044;8.716;2023-02-28T06:32:23;1.10;93.00
22544;DHT22;11438;52.044;8.716;2023-02-28T06:34:48;1.10;93.00
22544;DHT22;11438;52.044;8.716;2023-02-28T06:37:15;1.10;93.00
22544;DHT22;11438;52.044;8.716;2023-02-28T06:39:41;1.10;93.00
22544;DHT22;11438;52.044;8.716;2023-02-28T06:42:07;1.10;93.10
22544;DHT22;11438;52.044;8.716;2023-02-28T06:44:32;1.10;93.10
22544;DHT22;11438;52.044;8.716;2023-02-28T06:47:00;1.10;93.10
22544;DHT22;11438;52.044;8.716;2023-02-28T06:49:27;1.10;93.10
22544;DHT22;11438;52.044;8.716;2023-02-28T06:51:52;1.10;93.10
22544;DHT22;11438;52.044;8.716;2023-02-28T06:54:19;1.10;93.10
22544;DHT22;11438;52.044;8.716;2023-02-28T06:56:44;1.10;93.10
22544;DHT22;11438;52.044;8.716;2023-02-28T06:59:10;1.10;93.10
22544;DHT22;11438;52.044;8.716;2023-02-28T07:01:35;1.10;93.10
22544;DHT22;11438;52.044;8.716;2023-02-28T07:04:01;1.10;93.10
22544;DHT22;11438;52.044;8.716;2023-02-28T07:06:26;1.10;93.20
22544;DHT22;11438;52.044;8.716;2023-02-28T07:08:53;1.10;93.60
22544;DHT22;11438;52.044;8.716;2023-02-28T07:11:20;1.10;93.20
22544;DHT22;11438;52.044;8.716;2023-02-28T07:13:48;1.10;93.30
22544;DHT22;11438;52.044;8.716;2023-02-28T07:16:13;1.10;93.40
22544;DHT22;11438;52.044;8.716;2023-02-28T07:18:39;1.10;93.40
22544;DHT22;11438;52.044;8.716;2023-02-28T07:21:07;1.10;93.40
22544;DHT22;11438;52.044;8.716;2023-02-28T07:23:33;1.20;93.60
22544;DHT22;11438;52.044;8.716;2023-02-28T07:25:59;1.20;93.60
22544;DHT22;11438;52.044;8.716;2023-02-28T07:28:25;1.20;93.70
22544;DHT22;11438;52.044;8.716;2023-02-28T07:30:50;1.20;93.70
22544;DHT22;11438;52.044;8.716;2023-02-28T07:33:16;1.20;93.80
22544;DHT22;11438;52.044;8.716;2023-02-28T07:35:42;1.30;93.90
22544;DHT22;11438;52.044;8.716;2023-02-28T07:38:08;1.30;94.00
22544;DHT22;11438;52.044;8.716;2023-02-28T07:40:34;1.30;94.10
22544;DHT22;11438;52.044;8.716;2023-02-28T07:43:00;1.30;94.20
22544;DHT22;11438;52.044;8.716;2023-02-28T07:45:27;1.40;94.30
22544;DHT22;11438;52.044;8.716;2023-02-28T07:47:54;1.40;94.40
22544;DHT22;11438;52.044;8.716;2023-02-28T07:50:19;1.40;94.40
22544;DHT22;11438;52.044;8.716;2023-02-28T07:52:45;1.50;94.50
22544;DHT22;11438;52.044;8.716;2023-02-28T07:55:11;1.50;94.60
22544;DHT22;11438;52.044;8.716;2023-02-28T07:57:36;1.50;94.70
22544;DHT22;11438;52.044;8.716;2023-02-28T08:00:07;1.60;94.80
22544;DHT22;11438;52.044;8.716;2023-02-28T08:02:32;1.60;94.90
22544;DHT22;11438;52.044;8.716;2023-02-28T08:04:59;1.60;94.90
22544;DHT22;11438;52.044;8.716;2023-02-28T08:07:25;1.70;95.10
22544;DHT22;11438;52.044;8.716;2023-02-28T08:09:50;1.70;95.10
22544;DHT22;11438;52.044;8.716;2023-02-28T08:12:16;1.70;95.20
22544;DHT22;11438;52.044;8.716;2023-02-28T08:14:42;1.80;95.30
22544;DHT22;11438;52.044;8.716;2023-02-28T08:17:07;1.80;95.40
22544;DHT22;11438;52.044;8.716;2023-02-28T08:19:33;1.80;95.50
22544;DHT22;11438;52.044;8.716;2023-02-28T08:21:58;1.90;95.70
22544;DHT22;11438;52.044;8.716;2023-02-28T08:24:24;1.90;95.70
22544;DHT22;11438;52.044;8.716;2023-02-28T08:26:49;1.90;95.80
22544;DHT22;11438;52.044;8.716;2023-02-28T08:29:15;2.00;95.90
22544;DHT22;11438;52.044;8.716;2023-02-28T08:31:41;2.10;96.00
22544;DHT22;11438;52.044;8.716;2023-02-28T08:34:12;2.10;96.00
22544;DHT22;11438;52.044;8.716;2023-02-28T08:36:38;2.20;96.00
22544;DHT22;11438;52.044;8.716;2023-02-28T08:39:04;2.20;96.00
22544;DHT22;11438;52.044;8.716;2023-02-28T08:41:30;2.30;95.90
22544;DHT22;11438;52.044;8.716;2023-02-28T08:43:56;2.30;95.90
22544;DHT22;11438;52.044;8.716;2023-02-28T08:46:22;2.40;95.80
22544;DHT22;11438;52.044;8.716;2023-02-28T08:48:51;2.40;95.70
22544;DHT22;11438;52.044;8.716;2023-02-28T08:51:17;2.50;95.70
22544;DHT22;11438;52.044;8.716;2023-02-28T08:53:46;2.50;95.70
22544;DHT22;11438;52.044;8.716;2023-02-28T08:56:15;2.60;95.60
22544;DHT22;11438;52.044;8.716;2023-02-28T08:58:42;2.60;95.60
22544;DHT22;11438;52.044;8.716;2023-02-28T09:01:15;2.70;95.60
22544;DHT22;11438;52.044;8.716;2023-02-28T09:03:42;2.80;95.50
22544;DHT22;11438;52.044;8.716;2023-02-28T09:06:09;2.80;95.50
22544;DHT22;11438;52.044;8.716;2023-02-28T09:08:35;2.90;95.30
22544;DHT22;11438;52.044;8.716;2023-02-28T09:11:01;2.90;95.20
22544;DHT22;11438;52.044;8.716;2023-02-28T09:13:27;3.00;95.20
22544;DHT22;11438;52.044;8.716;2023-02-28T09:15:53;3.10;95.10
22544;DHT22;11438;52.044;8.716;2023-02-28T09:18:19;3.10;95.30
22544;DHT22;11438;52.044;8.716;2023-02-28T09:20:45;3.20;94.90
22544;DHT22;11438;52.044;8.716;2023-02-28T09:23:12;3.20;94.70
22544;DHT22;11438;52.044;8.716;2023-02-28T09:25:38;3.30;94.70
22544;DHT22;11438;52.044;8.716;2023-02-28T09:28:09;3.30;94.60
22544;DHT22;11438;52.044;8.716;2023-02-28T09:30:35;3.40;94.60
22544;DHT22;11438;52.044;8.716;2023-02-28T09:33:00;3.40;94.60
22544;DHT22;11438;52.044;8.716;2023-02-28T09:35:26;3.40;94.70
22544;DHT22;11438;52.044;8.716;2023-02-28T09:37:53;3.50;94.80
22544;DHT22;11438;52.044;8.716;2023-02-28T09:40:24;3.50;94.90
22544;DHT22;11438;52.044;8.716;2023-02-28T09:42:52;3.60;94.90
22544;DHT22;11438;52.044;8.716;2023-02-28T09:45:37;3.70;94.90
22544;DHT22;11438;52.044;8.716;2023-02-28T09:48:14;3.80;94.80
22544;DHT22;11438;52.044;8.716;2023-02-28T09:50:47;3.90;94.50
22544;DHT22;11438;52.044;8.716;2023-02-28T09:53:21;4.00;94.60
22544;DHT22;11438;52.044;8.716;2023-02-28T09:55:58;4.10;94.50
22544;DHT22;11438;52.044;8.716;2023-02-28T09:58:34;4.20;94.50
22544;DHT22;11438;52.044;8.716;2023-02-28T10:01:17;4.30;94.40
22544;DHT22;11438;52.044;8.716;2023-02-28T10:04:02;4.40;94.20
22544;DHT22;11438;52.044;8.716;2023-02-28T10:06:32;4.50;93.90
22544;DHT22;11438;52.044;8.716;2023-02-28T10:09:06;4.60;93.70
22544;DHT22;11438;52.044;8.716;2023-02-28T10:11:36;4.70;93.40
22544;DHT22;11438;52.044;8.716;2023-02-28T10:14:15;4.80;93.30
22544;DHT22;11438;52.044;8.716;2023-02-28T10:16:47;4.80;93.20
22544;DHT22;11438;52.044;8.716;2023-02-28T10:19:26;4.90;93.20
22544;DHT22;11438;52.044;8.716;2023-02-28T10:22:01;4.90;93.10
22544;DHT22;11438;52.044;8.716;2023-02-28T10:24:41;5.00;92.90
22544;DHT22;11438;52.044;8.716;2023-02-28T10:29:46;5.20;92.60
22544;DHT22;11438;52.044;8.716;2023-02-28T10:32:17;5.20;92.10
22544;DHT22;11438;52.044;8.716;2023-02-28T10:34:43;5.30;92.20
22544;DHT22;11438;52.044;8.716;2023-02-28T10:37:10;5.30;91.90
22544;DHT22;11438;52.044;8.716;2023-02-28T10:39:44;5.40;91.70
22544;DHT22;11438;52.044;8.716;2023-02-28T10:42:26;5.40;91.50
22544;DHT22;11438;52.044;8.716;2023-02-28T10:45:15;5.50;91.60
22544;DHT22;11438;52.044;8.716;2023-02-28T10:56:05;5.70;90.50
22544;DHT22;11438;52.044;8.716;2023-02-28T10:58:52;5.80;89.70
22544;DHT22;11438;52.044;8.716;2023-02-28T11:03:49;6.00;89.30
22544;DHT22;11438;52.044;8.716;2023-02-28T11:06:24;6.00;88.70
22544;DHT22;11438;52.044;8.716;2023-02-28T11:08:55;6.10;88.10
22544;DHT22;11438;52.044;8.716;2023-02-28T11:11:23;6.10;87.20
22544;DHT22;11438;52.044;8.716;2023-02-28T11:13:57;6.10;87.70
22544;DHT22;11438;52.044;8.716;2023-02-28T11:16:36;6.20;87.80
22544;DHT22;11438;52.044;8.716;2023-02-28T11:19:04;6.20;87.10
22544;DHT22;11438;52.044;8.716;2023-02-28T11:21:33;6.20;88.00
22544;DHT22;11438;52.044;8.716;2023-02-28T11:24:28;6.20;87.40
22544;DHT22;11438;52.044;8.716;2023-02-28T11:26:54;6.30;87.70
22544;DHT22;11438;52.044;8.716;2023-02-28T11:29:29;6.40;87.30
22544;DHT22;11438;52.044;8.716;2023-02-28T11:32:20;6.40;86.30
22544;DHT22;11438;52.044;8.716;2023-02-28T11:34:59;6.40;85.90
22544;DHT22;11438;52.044;8.716;2023-02-28T11:37:27;6.50;86.90
22544;DHT22;11438;52.044;8.716;2023-02-28T11:39:54;6.50;85.70
22544;DHT22;11438;52.044;8.716;2023-02-28T11:45:03;6.60;86.00
22544;DHT22;11438;52.044;8.716;2023-02-28T11:47:42;6.70;85.80
22544;DHT22;11438;52.044;8.716;2023-02-28T11:53:05;6.80;85.10
22544;DHT22;11438;52.044;8.716;2023-02-28T11:55:37;6.90;85.70
22544;DHT22;11438;52.044;8.716;2023-02-28T11:58:26;7.00;85.60
22544;DHT22;11438;52.044;8.716;2023-02-28T12:06:38;7.20;86.70
22544;DHT22;11438;52.044;8.716;2023-02-28T12:11:55;7.30;84.80
22544;DHT22;11438;52.044;8.716;2023-02-28T12:17:43;7.40;84.40
22544;DHT22;11438;52.044;8.716;2023-02-28T12:20:51;7.40;84.00
22544;DHT22;11438;52.044;8.716;2023-02-28T12:26:15;7.40;84.10
22544;DHT22;11438;52.044;8.716;2023-02-28T12:28:51;7.30;84.00
22544;DHT22;11438;52.044;8.716;2023-02-28T12:31:24;7.30;83.20
22544;DHT22;11438;52.044;8.716;2023-02-28T12:33:53;7.30;83.20
22544;DHT22;11438;52.044;8.716;2023-02-28T12:36:21;7.20;83.20
22544;DHT22;11438;52.044;8.716;2023-02-28T12:38:56;7.30;83.40
22544;DHT22;11438;52.044;8.716;2023-02-28T12:41:51;7.30;83.80
22544;DHT22;11438;52.044;8.716;2023-02-28T12:44:24;7.30;83.90
22544;DHT22;11438;52.044;8.716;2023-02-28T12:46:55;7.30;84.40
22544;DHT22;11438;52.044;8.716;2023-02-28T12:49:39;7.40;83.50
22544;DHT22;11438;52.044;8.716;2023-02-28T12:52:07;7.40;82.80
22544;DHT22;11438;52.044;8.716;2023-02-28T12:54:52;7.50;82.50
22544;DHT22;11438;52.044;8.716;2023-02-28T12:59:59;7.60;82.30
22544;DHT22;11438;52.044;8.716;2023-02-28T13:02:55;7.70;81.40
22544;DHT22;11438;52.044;8.716;2023-02-28T13:05:34;7.70;82.10
22544;DHT22;11438;52.044;8.716;2023-02-28T13:10:50;7.80;82.30
22544;DHT22;11438;52.044;8.716;2023-02-28T13:13:28;7.90;82.20
22544;DHT22;11438;52.044;8.716;2023-02-28T13:16:01;7.90;82.00
22544;DHT22;11438;52.044;8.716;2023-02-28T13:20:54;8.00;81.50
22544;DHT22;11438;52.044;8.716;2023-02-28T13:23:41;8.00;81.80
22544;DHT22;11438;52.044;8.716;2023-02-28T13:26:23;8.10;81.30
22544;DHT22;11438;52.044;8.716;2023-02-28T13:31:14;8.20;81.80
22544;DHT22;11438;52.044;8.716;2023-02-28T13:36:29;8.20;82.00
22544;DHT22;11438;52.044;8.716;2023-02-28T13:38:57;8.20;81.30
22544;DHT22;11438;52.044;8.716;2023-02-28T13:44:17;8.30;81.20
22544;DHT22;11438;52.044;8.716;2023-02-28T13:49:32;8.40;80.30
22544;DHT22;11438;52.044;8.716;2023-02-28T13:54:50;8.40;80.90
22544;DHT22;11438;52.044;8.716;2023-02-28T14:05:18;8.50;80.80
22544;DHT22;11438;52.044;8.716;2023-02-28T14:07:53;8.50;80.10
22544;DHT22;11438;52.044;8.716;2023-02-28T14:10:29;8.50;80.10
22544;DHT22;11438;52.044;8.716;2023-02-28T14:13:11;8.50;79.90
22544;DHT22;11438;52.044;8.716;2023-02-28T14:16:05;8.50;79.30
22544;DHT22;11438;52.044;8.716;2023-02-28T14:18:36;8.50;79.50
22544;DHT22;11438;52.044;8.716;2023-02-28T14:21:21;8.50;79.80
22544;DHT22;11438;52.044;8.716;2023-02-28T14:24:27;8.50;80.00
22544;DHT22;11438;52.044;8.716;2023-02-28T14:38:56;8.60;80.10
22544;DHT22;11438;52.044;8.716;2023-02-28T14:41:31;8.60;80.20
22544;DHT22;11438;52.044;8.716;2023-02-28T14:44:01;8.60;79.40
22544;DHT22;11438;52.044;8.716;2023-02-28T14:46:35;8.60;79.60
22544;DHT22;11438;52.044;8.716;2023-02-28T14:49:04;8.60;79.10
22544;DHT22;11438;52.044;8.716;2023-02-28T14:51:30;8.70;79.00
22544;DHT22;11438;52.044;8.716;2023-02-28T14:54:01;8.60;79.30
22544;DHT22;11438;52.044;8.716;2023-02-28T14:56:34;8.70;79.30
22544;DHT22;11438;52.044;8.716;2023-02-28T14:59:00;8.70;79.20
22544;DHT22;11438;52.044;8.716;2023-02-28T15:01:26;8.70;79.50
22544;DHT22;11438;52.044;8.716;2023-02-28T15:04:01;8.70;79.80
22544;DHT22;11438;52.044;8.716;2023-02-28T15:06:28;8.70;79.20
22544;DHT22;11438;52.044;8.716;2023-02-28T15:09:16;8.70;79.30
22544;DHT22;11438;52.044;8.716;2023-02-28T15:11:46;8.70;79.00
22544;DHT22;11438;52.044;8.716;2023-02-28T15:14:19;8.70;78.60
22544;DHT22;11438;52.044;8.716;2023-02-28T15:16:48;8.70;78.30
22544;DHT22;11438;52.044;8.716;2023-02-28T15:19:27;8.60;78.80
22544;DHT22;11438;52.044;8.716;2023-02-28T15:22:15;8.60;78.90
22544;DHT22;11438;52.044;8.716;2023-02-28T15:24:51;8.60;78.10
22544;DHT22;11438;52.044;8.716;2023-02-28T15:27:23;8.60;78.60
22544;DHT22;11438;52.044;8.716;2023-02-28T15:29:54;8.60;78.70
22544;DHT22;11438;52.044;8.716;2023-02-28T15:32:28;8.60;78.70
22544;DHT22;11438;52.044;8.716;2023-02-28T15:34:55;8.60;78.80
22544;DHT22;11438;52.044;8.716;2023-02-28T15:37:45;8.60;78.80
22544;DHT22;11438;52.044;8.716;2023-02-28T15:42:39;8.60;79.00
22544;DHT22;11438;52.044;8.716;2023-02-28T15:45:05;8.60;78.30
22544;DHT22;11438;52.044;8.716;2023-02-28T15:47:31;8.60;78.60
22544;DHT22;11438;52.044;8.716;2023-02-28T15:50:08;8.50;78.70
22544;DHT22;11438;52.044;8.716;2023-02-28T15:52:42;8.60;78.80
22544;DHT22;11438;52.044;8.716;2023-02-28T15:55:12;8.60;79.20
22544;DHT22;11438;52.044;8.716;2023-02-28T15:57:41;8.60;78.60
22544;DHT22;11438;52.044;8.716;2023-02-28T16:00:11;8.60;78.10
22544;DHT22;11438;52.044;8.716;2023-02-28T16:02:38;8.60;78.50
22544;DHT22;11438;52.044;8.716;2023-02-28T16:07:40;8.70;78.70
22544;DHT22;11438;52.044;8.716;2023-02-28T16:10:07;8.80;78.90
22544;DHT22;11438;52.044;8.716;2023-02-28T16:12:35;9.00;80.00
22544;DHT22;11438;52.044;8.716;2023-02-28T16:15:07;9.20;79.80
22544;DHT22;11438;52.044;8.716;2023-02-28T16:17:35;9.40;80.00
22544;DHT22;11438;52.044;8.716;2023-02-28T16:20:05;9.60;80.00
22544;DHT22;11438;52.044;8.716;2023-02-28T16:22:30;9.80;79.60
22544;DHT22;11438;52.044;8.716;2023-02-28T16:24:56;10.00;79.00
22544;DHT22;11438;52.044;8.716;2023-02-28T16:27:31;10.10;78.30
22544;DHT22;11438;52.044;8.716;2023-02-28T16:29:57;10.10;76.80
22544;DHT22;11438;52.044;8.716;2023-02-28T16:32:23;10.20;75.90
22544;DHT22;11438;52.044;8.716;2023-02-28T16:34:49;10.10;75.20
22544;DHT22;11438;52.044;8.716;2023-02-28T16:37:16;10.10;74.60
22544;DHT22;11438;52.044;8.716;2023-02-28T16:39:43;9.90;73.80
22544;DHT22;11438;52.044;8.716;2023-02-28T16:42:20;9.90;73.70
22544;DHT22;11438;52.044;8.716;2023-02-28T16:44:47;9.70;73.40
22544;DHT22;11438;52.044;8.716;2023-02-28T16:47:13;9.60;73.30
22544;DHT22;11438;52.044;8.716;2023-02-28T16:49:39;9.50;73.30
22544;DHT22;11438;52.044;8.716;2023-02-28T16:52:07;9.40;73.60
22544;DHT22;11438;52.044;8.716;2023-02-28T16:54:33;9.20;73.90
22544;DHT22;11438;52.044;8.716;2023-02-28T16:56:59;9.10;74.30
22544;DHT22;11438;52.044;8.716;2023-02-28T16:59:26;8.90;73.80
22544;DHT22;11438;52.044;8.716;2023-02-28T17:01:52;8.80;74.30
22544;DHT22;11438;52.044;8.716;2023-02-28T17:04:18;8.70;74.30
22544;DHT22;11438;52.044;8.716;2023-02-28T17:06:44;8.50;74.70
22544;DHT22;11438;52.044;8.716;2023-02-28T17:09:18;8.40;74.50
22544;DHT22;11438;52.044;8.716;2023-02-28T17:11:44;8.30;74.70
22544;DHT22;11438;52.044;8.716;2023-02-28T17:14:09;8.20;75.20
22544;DHT22;11438;52.044;8.716;2023-02-28T17:16:36;8.10;75.50
22544;DHT22;11438;52.044;8.716;2023-02-28T17:19:06;8.00;75.80
22544;DHT22;11438;52.044;8.716;2023-02-28T17:21:32;7.90;75.80
22544;DHT22;11438;52.044;8.716;2023-02-28T17:23:58;7.80;76.20
22544;DHT22;11438;52.044;8.716;2023-02-28T17:26:24;7.70;76.20
22544;DHT22;11438;52.044;8.716;2023-02-28T17:28:51;7.60;76.40
22544;DHT22;11438;52.044;8.716;2023-02-28T17:31:17;7.50;76.70
22544;DHT22;11438;52.044;8.716;2023-02-28T17:33:43;7.50;77.10
22544;DHT22;11438;52.044;8.716;2023-02-28T17:36:14;7.40;77.30
22544;DHT22;11438;52.044;8.716;2023-02-28T17:38:40;7.30;77.30
22544;DHT22;11438;52.044;8.716;2023-02-28T17:41:06;7.20;77.10
22544;DHT22;11438;52.044;8.716;2023-02-28T17:43:31;7.20;77.40
22544;DHT22;11438;52.044;8.716;2023-02-28T17:45:57;7.20;77.40
22544;DHT22;11438;52.044;8.716;2023-02-28T17:48:23;7.10;77.60
22544;DHT22;11438;52.044;8.716;2023-02-28T17:50:49;7.00;77.80